Terminal Aerodrome Forecast
Issued by NWS

Home | Current Version | Previous Version | Text Only | Print | Product List | Glossary On
Versions: 1 2 3 4 5 6 7 8 9 10 11 12 13 14 15 16 17 18 19 20 21
656
FTUS44 KLIX 201608 AAB
TAFMCB
TAF AMD
KMCB 201608Z 2016/2112 14005KT P6SM OVC005
     FM201700 12004KT P6SM BKN010
     FM201800 13006KT P6SM SCT025
     FM210100 14005KT 5SM -SHRA SCT005 BKN030
     FM210500 12005KT 3SM TSRA SCT003 OVC030CB
      TEMPO 2107/2111 3/4SM TSRA OVC003CB=

USA.gov is the U.S. government's official web portal to all federal, state and local government web resources and services.